Time;durP1;ratioP1;P1;durP2;ratioP2;P2;SDS_P1;SDS_P2;PMS_P1;PMS_P2;Temp;Humidity;BMP_temperature;BMP_pressure;BME280_temperature;BME280_humidity;BME280_pressure;Samples;Min_cycle;Max_cycle;Signal;HPM_P1;HPM_P2
2023/12/13 00:02:21;;;;;;;53.78;29.23;;;7.90;99.90;;;;;;5039147;27;20082;-82
2023/12/13 00:04:46;;;;;;;60.85;29.40;;;7.90;99.90;;;;;;5039088;28;20032;-82
2023/12/13 00:07:12;;;;;;;66.80;32.17;;;7.90;99.90;;;;;;5008641;28;20056;-82
2023/12/13 00:09:38;;;;;;;58.67;30.33;;;7.90;99.90;;;;;;4977544;28;20114;-82
2023/12/13 00:12:04;;;;;;;100.28;36.53;;;7.90;99.90;;;;;;5022511;28;20049;-82
2023/12/13 00:14:30;;;;;;;108.85;37.28;;;7.90;99.90;;;;;;5017511;28;20101;-84
2023/12/13 00:16:56;;;;;;;77.97;33.42;;;7.90;99.90;;;;;;5016444;28;20488;-82
2023/12/13 00:19:22;;;;;;;82.97;36.38;;;7.90;99.90;;;;;;5021104;28;20041;-82
2023/12/13 00:21:48;;;;;;;161.48;43.42;;;7.90;99.90;;;;;;5012134;28;20375;-75
2023/12/13 00:24:14;;;;;;;76.63;35.05;;;8.00;99.90;;;;;;4987038;28;20043;-75
2023/12/13 00:26:40;;;;;;;67.97;33.25;;;8.00;99.90;;;;;;5006241;28;20526;-75
2023/12/13 00:29:06;;;;;;;93.68;38.78;;;8.00;99.90;;;;;;5001929;28;20070;-75
2023/12/13 00:31:31;;;;;;;77.25;35.40;;;8.00;99.90;;;;;;4985353;28;20039;-75
2023/12/13 00:33:57;;;;;;;95.07;36.60;;;8.00;99.90;;;;;;4970399;28;20061;-82
2023/12/13 00:36:23;;;;;;;81.05;37.42;;;8.00;99.90;;;;;;5010447;28;20497;-82
2023/12/13 00:38:48;;;;;;;79.10;37.25;;;8.00;99.90;;;;;;4994132;28;20049;-82
2023/12/13 00:44:55;;;;;;;76.93;37.00;;;8.00;99.90;;;;;;5008898;28;20065;-83
2023/12/13 00:47:22;;;;;;;82.55;36.13;;;8.00;99.90;;;;;;5004605;28;20056;-83
2023/12/13 00:49:48;;;;;;;101.90;39.65;;;8.00;99.90;;;;;;5026185;28;20093;-83
2023/12/13 00:52:13;;;;;;;90.78;36.72;;;8.00;99.90;;;;;;5011966;28;20069;-83
2023/12/13 00:54:39;;;;;;;78.47;35.80;;;8.00;99.90;;;;;;5011237;28;20042;-83
2023/12/13 00:57:07;;;;;;;76.50;35.00;;;8.00;99.90;;;;;;5015727;28;20048;-82
2023/12/13 00:59:32;;;;;;;88.88;38.03;;;8.00;99.90;;;;;;4989398;28;20042;-83
2023/12/13 01:01:59;;;;;;;111.38;42.33;;;8.00;99.90;;;;;;5020658;28;20095;-83
2023/12/13 01:04:24;;;;;;;84.10;38.08;;;8.00;99.90;;;;;;5003968;28;20049;-83
2023/12/13 01:06:50;;;;;;;114.80;42.55;;;7.90;99.90;;;;;;5055735;27;20089;-83
2023/12/13 01:09:16;;;;;;;90.50;40.17;;;8.00;99.90;;;;;;5013686;28;20400;-83
2023/12/13 01:11:41;;;;;;;139.18;44.95;;;7.90;99.90;;;;;;4994560;28;20551;-83
2023/12/13 01:14:07;;;;;;;95.53;42.08;;;7.90;99.90;;;;;;5002483;28;20541;-83
2023/12/13 01:16:33;;;;;;;92.75;41.45;;;7.90;99.90;;;;;;4986121;28;20038;-82
2023/12/13 01:19:00;;;;;;;99.55;41.95;;;7.90;99.90;;;;;;5020734;28;20571;-83
2023/12/13 01:21:28;;;;;;;98.88;42.60;;;7.90;99.90;;;;;;5008310;28;20115;-83
2023/12/13 01:23:54;;;;;;;87.03;41.92;;;7.80;99.90;;;;;;5037359;28;20130;-82
2023/12/13 01:26:20;;;;;;;96.57;42.33;;;7.90;99.90;;;;;;5011594;28;20085;-83
2023/12/13 01:28:46;;;;;;;109.97;44.63;;;7.90;99.90;;;;;;5001884;28;20040;-83
2023/12/13 01:31:11;;;;;;;111.45;44.80;;;7.90;99.90;;;;;;5024049;28;20047;-83
2023/12/13 01:33:38;;;;;;;96.75;44.30;;;7.90;99.90;;;;;;5030139;28;20032;-83
2023/12/13 01:36:04;;;;;;;85.82;42.88;;;7.90;99.90;;;;;;5040465;28;20044;-82
2023/12/13 01:38:30;;;;;;;102.93;44.72;;;7.90;99.90;;;;;;4992061;28;20045;-82
2023/12/13 01:40:56;;;;;;;92.32;42.38;;;7.90;99.90;;;;;;5015273;28;20054;-83
2023/12/13 01:43:25;;;;;;;77.90;41.50;;;8.00;99.90;;;;;;5015788;28;20047;-83
2023/12/13 01:49:08;;;;;;;92.47;42.13;;;7.90;99.90;;;;;;4979902;23;20069;-83
2023/12/13 01:51:35;;;;;;;89.63;42.53;;;7.90;99.90;;;;;;4964137;28;20046;-83
2023/12/13 01:54:08;;;;;;;87.20;41.28;;;7.90;99.90;;;;;;4957524;28;20057;-84
2023/12/13 01:56:34;;;;;;;96.20;42.90;;;7.90;99.90;;;;;;4958640;28;20054;-83
2023/12/13 01:59:00;;;;;;;76.97;39.58;;;7.90;99.90;;;;;;4964972;28;20054;-83
2023/12/13 02:01:26;;;;;;;89.90;42.03;;;7.90;99.90;;;;;;4948018;28;20062;-83
2023/12/13 02:03:52;;;;;;;83.28;39.40;;;7.90;99.90;;;;;;5006802;28;20046;-83
2023/12/13 02:06:19;;;;;;;75.00;38.08;;;7.90;99.90;;;;;;4963560;28;20089;-83
2023/12/13 02:08:45;;;;;;;64.88;34.78;;;7.90;99.90;;;;;;4968041;28;20555;-83
2023/12/13 02:11:11;;;;;;;57.15;33.17;;;7.90;99.90;;;;;;4962885;28;20760;-83
2023/12/13 02:13:37;;;;;;;61.53;32.90;;;7.90;99.90;;;;;;4994327;28;20047;-83
2023/12/13 02:16:03;;;;;;;51.28;30.75;;;7.90;99.90;;;;;;4969811;28;20074;-83
2023/12/13 02:18:29;;;;;;;73.53;33.35;;;7.90;99.90;;;;;;4975078;28;20049;-83
2023/12/13 02:20:58;;;;;;;48.70;29.08;;;7.90;99.90;;;;;;4980590;28;20403;-82
2023/12/13 02:23:23;;;;;;;63.47;30.35;;;7.90;99.90;;;;;;4992694;28;20038;-83
2023/12/13 02:26:02;;;;;;;46.60;27.40;;;7.90;99.90;;;;;;4970825;28;20422;-83
2023/12/13 02:28:29;;;;;;;50.60;28.15;;;7.90;99.90;;;;;;5005965;28;20189;-83
2023/12/13 02:30:57;;;;;;;41.40;26.25;;;7.90;99.90;;;;;;4993011;28;20046;-83
2023/12/13 02:33:27;;;;;;;39.13;23.92;;;7.90;99.90;;;;;;4983760;28;20046;-83
2023/12/13 02:35:54;;;;;;;37.75;23.60;;;7.90;99.90;;;;;;4958220;28;20122;-84
2023/12/13 02:38:20;;;;;;;38.95;24.50;;;7.90;99.90;;;;;;4984200;28;20077;-83
2023/12/13 02:40:46;;;;;;;36.60;23.20;;;7.90;99.90;;;;;;4977535;28;20505;-83
2023/12/13 02:43:12;;;;;;;33.63;22.13;;;7.90;99.90;;;;;;4988419;28;20058;-83
2023/12/13 02:45:38;;;;;;;35.38;23.02;;;8.00;99.90;;;;;;4971255;28;20069;-83
2023/12/13 02:48:04;;;;;;;34.63;22.73;;;8.00;99.90;;;;;;4977733;28;20047;-83
2023/12/13 02:50:30;;;;;;;35.92;22.73;;;8.00;99.90;;;;;;4973951;28;20038;-83
2023/12/13 02:52:56;;;;;;;47.15;24.88;;;8.00;99.90;;;;;;4996476;28;20345;-82
2023/12/13 02:55:22;;;;;;;34.63;23.63;;;7.90;99.90;;;;;;4958206;28;20051;-82
2023/12/13 02:57:47;;;;;;;34.25;23.23;;;7.90;99.90;;;;;;4980297;28;20034;-83
2023/12/13 03:00:13;;;;;;;47.05;24.90;;;8.00;99.90;;;;;;4986781;28;20104;-83
2023/12/13 03:02:42;;;;;;;34.05;22.42;;;8.00;99.90;;;;;;5007997;28;20042;-82
2023/12/13 03:05:08;;;;;;;43.35;25.35;;;8.00;99.90;;;;;;4973105;28;20047;-83
2023/12/13 03:07:34;;;;;;;40.72;24.77;;;8.00;99.90;;;;;;4964594;28;20057;-83
2023/12/13 03:09:59;;;;;;;35.33;23.33;;;8.00;99.90;;;;;;4968044;28;20054;-82
2023/12/13 03:12:25;;;;;;;36.63;22.40;;;8.00;99.90;;;;;;4998714;28;20204;-83
2023/12/13 03:14:51;;;;;;;34.05;22.98;;;8.00;99.90;;;;;;4965233;28;20053;-83
2023/12/13 03:17:17;;;;;;;35.83;23.45;;;8.00;99.90;;;;;;4976392;28;20133;-83
2023/12/13 03:19:42;;;;;;;37.10;23.42;;;8.00;99.90;;;;;;4969277;28;20135;-82
2023/12/13 03:22:08;;;;;;;45.72;25.65;;;8.00;99.90;;;;;;4973820;28;20054;-83
2023/12/13 03:24:35;;;;;;;39.03;25.35;;;8.00;99.90;;;;;;4954378;28;20069;-82
2023/12/13 03:27:01;;;;;;;37.55;24.35;;;8.00;99.90;;;;;;5006003;28;20410;-82
2023/12/13 03:29:27;;;;;;;33.88;23.60;;;8.00;99.90;;;;;;4992338;28;20047;-82
2023/12/13 03:31:53;;;;;;;37.58;23.98;;;7.90;99.90;;;;;;4989565;28;20097;-82
2023/12/13 03:34:19;;;;;;;50.40;26.52;;;7.90;99.90;;;;;;5001824;27;20062;-81
2023/12/13 03:36:46;;;;;;;34.80;23.42;;;7.90;99.90;;;;;;4998965;28;20279;-81
2023/12/13 03:39:11;;;;;;;34.95;23.00;;;8.00;99.90;;;;;;4969136;28;20462;-82
2023/12/13 03:41:37;;;;;;;42.95;25.70;;;8.00;99.90;;;;;;4967494;28;20037;-82
2023/12/13 03:44:03;;;;;;;32.38;22.85;;;8.00;99.90;;;;;;4970394;28;20723;-82
2023/12/13 03:46:29;;;;;;;43.50;25.92;;;7.90;99.90;;;;;;4992546;28;20046;-82
2023/12/13 03:48:54;;;;;;;36.92;24.17;;;7.90;99.90;;;;;;4978456;28;20095;-82
2023/12/13 03:51:20;;;;;;;43.67;25.92;;;7.90;99.90;;;;;;4973184;28;20490;-82
2023/12/13 03:53:46;;;;;;;39.50;24.65;;;8.00;99.90;;;;;;4979232;28;20139;-82
2023/12/13 03:56:12;;;;;;;38.90;24.90;;;7.90;99.90;;;;;;4959566;28;20053;-82
2023/12/13 03:58:38;;;;;;;41.97;24.95;;;8.00;99.90;;;;;;4977727;28;20122;-82
2023/12/13 04:01:04;;;;;;;40.97;24.73;;;7.90;99.90;;;;;;5008986;28;20045;-82
2023/12/13 04:03:32;;;;;;;40.35;25.13;;;7.90;99.90;;;;;;4973239;28;20045;-82
2023/12/13 04:05:58;;;;;;;66.43;29.98;;;7.90;99.90;;;;;;5009115;28;20410;-83
2023/12/13 04:08:23;;;;;;;36.75;24.30;;;8.00;99.90;;;;;;4977470;28;20050;-83
2023/12/13 04:10:49;;;;;;;45.55;26.17;;;8.00;99.90;;;;;;4972145;28;20088;-82
2023/12/13 04:13:15;;;;;;;44.20;27.00;;;8.00;99.90;;;;;;4977569;28;20053;-82
2023/12/13 04:15:41;;;;;;;44.25;26.52;;;8.10;99.90;;;;;;4973428;28;20049;-82
2023/12/13 04:18:06;;;;;;;42.67;26.23;;;8.00;99.90;;;;;;4997737;28;20153;-83
2023/12/13 04:20:32;;;;;;;42.88;27.50;;;7.90;99.90;;;;;;4978915;28;20054;-82
2023/12/13 04:22:58;;;;;;;49.33;28.40;;;8.00;99.90;;;;;;4996299;28;20085;-76
2023/12/13 04:25:23;;;;;;;53.95;28.23;;;8.00;99.90;;;;;;5021590;28;20053;-76
2023/12/13 04:27:49;;;;;;;46.72;29.30;;;7.90;99.90;;;;;;4976455;28;20039;-75
2023/12/13 04:30:15;;;;;;;60.03;31.05;;;8.00;99.90;;;;;;4968084;28;20053;-83
2023/12/13 04:32:41;;;;;;;62.80;32.08;;;7.90;99.90;;;;;;4962338;28;20072;-83
2023/12/13 04:35:08;;;;;;;46.63;29.35;;;8.00;99.90;;;;;;4979474;28;20390;-83
2023/12/13 04:37:34;;;;;;;49.42;30.73;;;8.00;99.90;;;;;;4970026;28;20050;-83
2023/12/13 04:40:01;;;;;;;48.72;30.02;;;8.00;99.90;;;;;;5006143;28;20053;-83
2023/12/13 04:42:26;;;;;;;47.63;30.35;;;8.00;99.90;;;;;;5011784;28;20061;-83
2023/12/13 04:44:53;;;;;;;44.90;29.98;;;8.00;99.90;;;;;;4985149;28;20202;-83
2023/12/13 04:47:19;;;;;;;83.60;36.80;;;8.00;99.90;;;;;;4988505;28;20046;-83
2023/12/13 04:49:45;;;;;;;77.68;37.55;;;8.00;99.90;;;;;;4990014;28;20121;-83
2023/12/13 04:52:10;;;;;;;53.85;32.28;;;8.00;99.90;;;;;;4994839;28;20099;-83
2023/12/13 04:54:37;;;;;;;49.80;31.10;;;8.00;99.90;;;;;;4999254;28;20052;-83
2023/12/13 04:57:04;;;;;;;51.22;32.75;;;8.00;99.90;;;;;;5014442;28;20050;-84
2023/12/13 04:59:29;;;;;;;55.03;33.72;;;8.00;99.90;;;;;;4977403;28;20179;-83
2023/12/13 05:01:56;;;;;;;53.15;32.70;;;8.00;99.90;;;;;;5013369;28;20092;-83
2023/12/13 05:04:22;;;;;;;63.38;35.70;;;8.00;99.90;;;;;;5008905;28;20051;-83
2023/12/13 05:06:47;;;;;;;61.22;34.67;;;8.00;99.90;;;;;;5005883;28;20047;-83
2023/12/13 05:09:13;;;;;;;57.55;34.65;;;8.00;99.90;;;;;;4984097;28;20050;-83
2023/12/13 05:11:39;;;;;;;51.72;32.75;;;8.00;99.90;;;;;;4979240;28;20043;-83
2023/12/13 05:14:05;;;;;;;55.13;33.83;;;8.00;99.90;;;;;;4959443;28;20057;-83
2023/12/13 05:16:30;;;;;;;58.25;34.00;;;8.00;99.90;;;;;;4978041;28;21436;-83
2023/12/13 05:18:56;;;;;;;52.65;33.42;;;7.90;99.90;;;;;;4993595;28;20042;-85
2023/12/13 05:21:22;;;;;;;60.72;36.28;;;7.90;99.90;;;;;;4975192;28;20050;-83
2023/12/13 05:23:48;;;;;;;54.08;33.13;;;7.90;99.90;;;;;;4965773;28;20035;-83
2023/12/13 05:26:14;;;;;;;50.45;33.20;;;7.90;99.90;;;;;;5009235;28;20055;-83
2023/12/13 05:28:40;;;;;;;61.20;35.70;;;7.90;99.90;;;;;;4964776;28;20073;-83
2023/12/13 05:31:05;;;;;;;71.15;36.17;;;7.90;99.90;;;;;;4997685;28;20081;-83
2023/12/13 05:33:31;;;;;;;52.55;34.25;;;7.90;99.90;;;;;;4967618;28;20076;-83
2023/12/13 05:35:57;;;;;;;55.35;35.65;;;7.90;99.90;;;;;;4982689;28;20129;-83
2023/12/13 05:38:23;;;;;;;56.80;34.92;;;8.00;99.90;;;;;;5001127;28;20486;-83
2023/12/13 05:40:48;;;;;;;67.10;38.85;;;7.90;99.90;;;;;;4994893;28;20112;-83
2023/12/13 05:43:15;;;;;;;57.58;34.72;;;7.90;99.90;;;;;;4997413;28;20057;-83
2023/12/13 05:45:41;;;;;;;61.45;37.35;;;7.90;99.90;;;;;;4996915;28;20042;-83
2023/12/13 05:48:07;;;;;;;62.45;36.33;;;7.90;99.90;;;;;;5014498;28;20065;-83
2023/12/13 05:50:33;;;;;;;60.67;35.58;;;7.90;99.90;;;;;;4961155;28;20494;-76
2023/12/13 05:52:58;;;;;;;62.60;36.63;;;7.90;99.90;;;;;;4966559;28;20627;-76
2023/12/13 05:55:24;;;;;;;114.10;44.08;;;7.80;99.90;;;;;;5018821;28;20153;-76
2023/12/13 05:57:50;;;;;;;65.10;37.72;;;7.80;99.90;;;;;;4986845;28;20042;-75
2023/12/13 06:00:16;;;;;;;62.63;36.92;;;7.80;99.90;;;;;;4979997;28;20093;-75
2023/12/13 06:02:42;;;;;;;62.78;36.95;;;7.80;99.90;;;;;;4968654;28;20133;-75
2023/12/13 06:05:08;;;;;;;63.60;36.88;;;7.80;99.90;;;;;;4993222;28;20170;-76
2023/12/13 06:07:34;;;;;;;70.53;38.75;;;7.80;99.90;;;;;;4982139;28;20050;-75
2023/12/13 06:10:00;;;;;;;67.18;39.33;;;7.80;99.90;;;;;;4976568;28;20831;-78
2023/12/13 06:12:26;;;;;;;67.80;38.67;;;7.80;99.90;;;;;;4958649;28;20494;-77
2023/12/13 06:14:52;;;;;;;67.53;38.42;;;7.80;99.90;;;;;;4975670;28;20089;-75
2023/12/13 06:17:17;;;;;;;59.83;36.17;;;7.80;99.90;;;;;;4994881;28;20519;-75
2023/12/13 06:19:43;;;;;;;102.22;42.60;;;7.80;99.90;;;;;;4993115;28;20148;-75
2023/12/13 06:22:10;;;;;;;74.15;39.78;;;7.80;99.90;;;;;;4991219;28;20062;-75
2023/12/13 06:24:36;;;;;;;63.28;36.13;;;7.80;99.90;;;;;;4969754;28;20051;-75
2023/12/13 06:27:02;;;;;;;69.57;38.85;;;7.80;99.90;;;;;;5012347;28;20045;-75
2023/12/13 06:29:28;;;;;;;79.60;41.30;;;7.80;99.90;;;;;;4962124;28;20043;-76
2023/12/13 06:31:53;;;;;;;60.85;37.30;;;7.80;99.90;;;;;;5006516;28;20097;-75
2023/12/13 06:34:19;;;;;;;58.88;35.45;;;7.80;99.90;;;;;;4980555;28;20042;-82
2023/12/13 06:36:45;;;;;;;78.47;39.22;;;7.80;99.90;;;;;;4983378;28;20057;-82
2023/12/13 06:39:11;;;;;;;60.42;36.47;;;7.80;99.90;;;;;;5012680;28;20438;-82
2023/12/13 06:41:39;;;;;;;71.70;38.92;;;7.80;99.90;;;;;;5000236;28;20042;-82
2023/12/13 06:44:05;;;;;;;63.10;36.95;;;7.80;99.90;;;;;;5001993;28;20062;-82
2023/12/13 06:46:31;;;;;;;63.53;36.42;;;7.80;99.90;;;;;;4973999;28;20050;-82
2023/12/13 06:48:57;;;;;;;62.38;36.03;;;7.80;99.90;;;;;;4976466;28;20049;-82
2023/12/13 06:51:23;;;;;;;70.35;38.85;;;7.80;99.90;;;;;;4982305;28;20577;-82
2023/12/13 06:53:49;;;;;;;64.10;37.85;;;7.80;99.90;;;;;;4979806;28;20065;-82
2023/12/13 06:56:14;;;;;;;61.40;37.70;;;7.80;99.90;;;;;;4995142;28;20082;-83
2023/12/13 06:58:40;;;;;;;69.65;39.03;;;7.80;99.90;;;;;;4962489;28;20046;-84
2023/12/13 07:01:06;;;;;;;67.25;37.90;;;7.80;99.90;;;;;;4990902;28;20074;-84
2023/12/13 07:03:32;;;;;;;72.20;39.88;;;7.80;99.90;;;;;;4988989;28;20046;-84
2023/12/13 07:05:58;;;;;;;63.10;37.75;;;7.80;99.90;;;;;;4983576;28;20520;-83
2023/12/13 07:08:24;;;;;;;65.22;38.22;;;7.80;99.90;;;;;;4979442;28;20030;-84
2023/12/13 07:10:50;;;;;;;76.63;39.80;;;7.80;99.90;;;;;;4963008;28;20039;-84
2023/12/13 07:13:15;;;;;;;64.38;38.38;;;7.80;99.90;;;;;;4976060;28;20505;-84
2023/12/13 07:15:42;;;;;;;65.10;37.28;;;7.80;99.90;;;;;;4963913;28;20038;-84
2023/12/13 07:18:08;;;;;;;73.13;39.63;;;7.80;99.90;;;;;;5038955;28;20129;-85
2023/12/13 07:20:34;;;;;;;78.43;39.00;;;7.80;99.90;;;;;;4987606;28;20427;-85
2023/12/13 07:23:00;;;;;;;70.20;38.50;;;7.80;99.90;;;;;;4959012;28;20507;-84
2023/12/13 07:25:28;;;;;;;63.40;36.97;;;7.80;99.90;;;;;;5009902;28;20053;-85
2023/12/13 07:27:54;;;;;;;63.83;38.22;;;7.80;99.90;;;;;;4992212;28;20518;-85
2023/12/13 07:30:23;;;;;;;75.30;39.38;;;7.80;99.90;;;;;;4983660;28;20073;-85
2023/12/13 07:32:49;;;;;;;83.28;41.13;;;7.80;99.90;;;;;;4962736;28;20398;-85
2023/12/13 07:35:15;;;;;;;71.43;39.35;;;7.80;99.90;;;;;;4983768;28;20522;-85
2023/12/13 07:37:41;;;;;;;71.93;36.75;;;7.80;99.90;;;;;;4989933;28;20126;-85
2023/12/13 07:40:08;;;;;;;68.68;37.67;;;7.80;99.90;;;;;;4971261;28;20801;-85
2023/12/13 07:42:33;;;;;;;65.65;36.72;;;7.80;99.90;;;;;;4993787;28;20533;-85
2023/12/13 07:44:59;;;;;;;68.60;38.38;;;7.80;99.90;;;;;;4969074;28;20070;-84
2023/12/13 07:47:28;;;;;;;76.15;40.60;;;7.80;99.90;;;;;;4999067;28;20042;-84
2023/12/13 07:49:54;;;;;;;70.60;39.05;;;7.80;99.90;;;;;;5006434;28;20046;-85
2023/12/13 07:52:20;;;;;;;69.22;37.35;;;7.80;99.90;;;;;;4995683;28;20052;-85
2023/12/13 07:54:46;;;;;;;91.45;42.13;;;7.80;99.90;;;;;;4969141;28;20354;-85
2023/12/13 07:57:11;;;;;;;70.70;38.45;;;7.80;99.90;;;;;;4967528;28;20046;-84
2023/12/13 07:59:37;;;;;;;69.93;38.58;;;7.80;99.90;;;;;;5007446;28;20121;-85
2023/12/13 08:02:04;;;;;;;66.13;36.65;;;7.80;99.90;;;;;;4973956;28;20085;-84
2023/12/13 08:04:30;;;;;;;67.82;37.45;;;7.80;99.90;;;;;;4984498;28;20042;-84
2023/12/13 08:06:56;;;;;;;73.63;38.15;;;7.80;99.90;;;;;;4969960;28;20043;-84
2023/12/13 08:09:22;;;;;;;61.00;35.22;;;7.80;99.90;;;;;;4980805;28;20063;-84
2023/12/13 08:11:47;;;;;;;69.05;38.22;;;7.80;99.90;;;;;;4960634;28;20054;-84
2023/12/13 08:14:14;;;;;;;69.60;38.33;;;7.80;99.90;;;;;;5010811;28;20490;-84
2023/12/13 08:16:40;;;;;;;74.22;39.67;;;7.80;99.90;;;;;;4992789;28;20046;-85
2023/12/13 08:19:06;;;;;;;72.72;38.50;;;7.80;99.90;;;;;;4996656;28;20046;-85
2023/12/13 08:21:32;;;;;;;64.32;38.33;;;7.90;99.90;;;;;;4992109;28;20582;-85
2023/12/13 08:23:58;;;;;;;68.53;38.40;;;7.90;99.90;;;;;;4967788;28;20043;-85
2023/12/13 08:26:27;;;;;;;65.30;38.35;;;7.80;99.90;;;;;;4959119;28;20054;-85
2023/12/13 08:28:53;;;;;;;65.90;38.20;;;7.90;99.90;;;;;;4981111;28;20038;-85
2023/12/13 08:31:21;;;;;;;66.63;37.10;;;7.80;99.90;;;;;;4973340;28;20049;-84
2023/12/13 08:33:47;;;;;;;73.43;38.88;;;7.90;99.90;;;;;;4992536;28;20034;-85
2023/12/13 08:36:13;;;;;;;68.97;37.85;;;7.90;99.90;;;;;;5010215;28;20394;-85
2023/12/13 08:38:40;;;;;;;81.05;40.67;;;7.90;99.90;;;;;;5014794;28;20424;-85
2023/12/13 08:41:11;;;;;;;67.05;37.72;;;7.90;99.90;;;;;;4975819;28;20051;-85
2023/12/13 08:43:38;;;;;;;63.88;37.38;;;7.90;99.90;;;;;;4990567;28;20367;-85
2023/12/13 08:46:04;;;;;;;80.57;39.65;;;7.90;99.90;;;;;;4964054;28;20046;-85
2023/12/13 08:48:30;;;;;;;74.75;40.38;;;7.90;99.90;;;;;;4996562;28;20093;-85
2023/12/13 08:50:57;;;;;;;78.55;39.70;;;7.90;99.90;;;;;;4957640;28;20050;-85
2023/12/13 08:53:24;;;;;;;86.95;39.65;;;7.90;99.90;;;;;;5014771;28;20050;-86
2023/12/13 08:55:50;;;;;;;72.95;38.65;;;8.00;99.90;;;;;;4956457;28;20118;-85
2023/12/13 08:58:15;;;;;;;73.68;39.85;;;8.00;99.90;;;;;;4998691;28;20299;-86
2023/12/13 09:00:41;;;;;;;76.18;39.47;;;8.00;99.90;;;;;;5012763;28;20050;-85
2023/12/13 09:03:08;;;;;;;69.75;36.25;;;8.00;99.90;;;;;;4983067;28;20149;-85
2023/12/13 09:05:37;;;;;;;75.95;38.85;;;8.00;99.90;;;;;;4969575;28;20490;-85
2023/12/13 09:08:04;;;;;;;64.90;37.30;;;8.00;99.90;;;;;;4989184;28;20042;-85
2023/12/13 09:10:34;;;;;;;71.15;39.25;;;8.00;99.90;;;;;;4973528;28;20093;-85
2023/12/13 09:13:04;;;;;;;70.30;38.22;;;8.00;99.90;;;;;;4971384;28;20459;-85
2023/12/13 09:15:33;;;;;;;68.40;36.40;;;8.00;99.90;;;;;;4969284;28;20571;-86
2023/12/13 09:17:59;;;;;;;71.90;39.17;;;8.10;99.90;;;;;;4973206;28;20050;-85
2023/12/13 09:20:26;;;;;;;73.97;40.08;;;8.00;99.90;;;;;;5011015;28;20058;-85
2023/12/13 09:22:51;;;;;;;74.68;38.60;;;8.10;99.90;;;;;;4990217;28;20101;-85
2023/12/13 09:25:17;;;;;;;79.65;40.88;;;8.10;99.90;;;;;;4967656;28;20089;-85
2023/12/13 09:27:44;;;;;;;82.25;40.05;;;8.10;99.90;;;;;;4978078;28;20066;-85
2023/12/13 09:30:11;;;;;;;96.68;42.95;;;8.10;99.90;;;;;;5014480;28;20308;-85
2023/12/13 09:32:38;;;;;;;76.05;38.60;;;8.10;99.90;;;;;;4990056;28;20050;-85
2023/12/13 09:35:04;;;;;;;73.30;38.58;;;8.10;99.90;;;;;;5012981;28;20049;-85
2023/12/13 09:37:30;;;;;;;75.57;39.35;;;8.20;99.90;;;;;;4963886;28;20043;-78
2023/12/13 09:39:56;;;;;;;73.43;39.58;;;8.20;99.90;;;;;;5008716;28;20042;-78
2023/12/13 09:42:24;;;;;;;71.65;39.50;;;8.20;99.90;;;;;;4985693;28;20821;-78
2023/12/13 09:44:49;;;;;;;64.75;37.05;;;8.20;99.90;;;;;;4969174;28;20054;-77
2023/12/13 09:47:17;;;;;;;84.65;40.95;;;8.20;99.90;;;;;;4964108;28;20050;-85
2023/12/13 09:49:43;;;;;;;75.40;39.67;;;8.30;99.90;;;;;;5006654;28;20043;-85
2023/12/13 09:52:10;;;;;;;71.80;38.22;;;8.30;99.90;;;;;;5014031;28;20390;-86
2023/12/13 09:54:38;;;;;;;67.40;37.65;;;8.30;99.90;;;;;;4965505;28;20435;-86
2023/12/13 09:57:08;;;;;;;70.25;37.63;;;8.30;99.90;;;;;;4960443;28;20035;-86
2023/12/13 09:59:35;;;;;;;69.32;38.72;;;8.30;99.90;;;;;;4992341;28;20062;-86
2023/12/13 10:02:01;;;;;;;70.03;38.38;;;8.40;99.90;;;;;;5012876;28;20042;-86
2023/12/13 10:04:28;;;;;;;67.32;37.53;;;8.30;99.90;;;;;;5000825;28;20054;-85
2023/12/13 10:06:57;;;;;;;65.38;37.60;;;8.40;99.90;;;;;;4996666;28;20050;-85
2023/12/13 10:09:27;;;;;;;67.60;37.17;;;8.40;99.90;;;;;;4962234;28;20413;-85
2023/12/13 10:11:55;;;;;;;66.65;37.50;;;8.40;99.90;;;;;;4993688;28;20035;-86
2023/12/13 10:14:21;;;;;;;62.25;35.95;;;8.40;99.90;;;;;;4997978;28;20077;-83
2023/12/13 10:16:47;;;;;;;60.67;36.42;;;8.40;99.90;;;;;;5014374;28;20042;-83
2023/12/13 10:19:12;;;;;;;60.75;37.13;;;8.50;99.90;;;;;;5016847;28;20085;-83
2023/12/13 10:21:38;;;;;;;62.42;36.45;;;8.40;99.90;;;;;;4994512;28;21106;-83
2023/12/13 10:24:07;;;;;;;56.83;35.22;;;8.50;99.90;;;;;;5008603;28;20089;-83
2023/12/13 10:26:36;;;;;;;64.10;37.38;;;8.50;99.90;;;;;;5011850;28;20050;-83
2023/12/13 10:29:03;;;;;;;60.10;36.33;;;8.50;99.90;;;;;;4978498;28;20046;-85
2023/12/13 10:31:33;;;;;;;60.83;35.80;;;8.50;99.90;;;;;;4996216;28;20054;-85
2023/12/13 10:33:59;;;;;;;;;;;8.50;99.90;;;;;;4963937;28;20058;-85
2023/12/13 10:36:27;;;;;;;57.30;34.90;;;8.50;99.90;;;;;;4955251;28;19929;-85
2023/12/13 10:38:54;;;;;;;63.97;36.92;;;8.40;99.90;;;;;;4997268;28;20061;-85
2023/12/13 10:41:25;;;;;;;59.28;35.58;;;8.50;99.90;;;;;;5012988;28;20140;-85
2023/12/13 10:43:58;;;;;;;59.58;36.25;;;8.50;99.90;;;;;;4967510;28;20061;-84
2023/12/13 10:46:31;;;;;;;53.25;35.28;;;8.50;99.90;;;;;;4971006;28;20088;-85
2023/12/13 10:48:59;;;;;;;64.45;35.72;;;8.50;99.90;;;;;;5012906;28;20051;-85
2023/12/13 10:51:26;;;;;;;59.63;36.60;;;8.50;99.90;;;;;;4991989;28;20086;-85
2023/12/13 10:53:53;;;;;;;60.38;35.42;;;8.50;99.90;;;;;;5007255;28;20466;-84
2023/12/13 10:56:19;;;;;;;60.35;35.85;;;8.50;99.90;;;;;;5019226;28;20068;-85
2023/12/13 10:58:45;;;;;;;51.17;33.03;;;8.50;99.90;;;;;;4977860;28;20448;-85
2023/12/13 11:01:12;;;;;;;51.63;34.40;;;8.50;99.90;;;;;;4974159;28;20050;-85
2023/12/13 11:03:50;;;;;;;58.08;34.60;;;8.50;99.90;;;;;;4974381;28;20103;-85
2023/12/13 11:06:17;;;;;;;52.17;33.00;;;8.50;99.90;;;;;;5008666;28;20143;-85
2023/12/13 11:08:44;;;;;;;57.95;35.88;;;8.50;99.90;;;;;;4976358;28;20596;-85
2023/12/13 11:11:13;;;;;;;57.38;35.58;;;8.60;99.90;;;;;;4974406;28;20103;-85
2023/12/13 11:13:50;;;;;;;61.20;35.38;;;8.50;99.90;;;;;;4962441;28;20376;-85
2023/12/13 11:16:24;;;;;;;54.65;32.63;;;8.50;99.90;;;;;;4980227;28;20472;-85
2023/12/13 11:18:51;;;;;;;56.00;33.90;;;8.60;99.90;;;;;;4998927;28;20057;-85
2023/12/13 11:21:30;;;;;;;61.65;35.92;;;8.60;99.90;;;;;;4978926;28;20527;-85
2023/12/13 11:24:16;;;;;;;59.22;34.70;;;8.60;99.90;;;;;;4984635;28;20050;-85
2023/12/13 11:26:50;;;;;;;57.30;36.03;;;8.60;99.90;;;;;;4996678;28;20061;-85
2023/12/13 11:29:18;;;;;;;56.00;34.13;;;8.60;99.90;;;;;;4997807;28;20058;-85
2023/12/13 11:31:53;;;;;;;55.47;33.33;;;8.60;99.90;;;;;;4962715;28;20078;-85
2023/12/13 11:34:33;;;;;;;55.83;33.75;;;8.60;99.90;;;;;;4965779;28;20046;-85
2023/12/13 11:37:06;;;;;;;59.22;36.22;;;8.60;99.90;;;;;;4968299;28;20046;-84
2023/12/13 11:39:34;;;;;;;58.55;35.28;;;8.60;99.90;;;;;;4982767;28;20062;-86
2023/12/13 11:42:07;;;;;;;61.65;35.75;;;8.60;99.90;;;;;;4975445;28;20121;-86
2023/12/13 11:44:34;;;;;;;61.03;34.80;;;8.60;99.90;;;;;;4996883;28;20076;-84
2023/12/13 11:47:03;;;;;;;65.75;37.03;;;8.60;99.90;;;;;;4981978;28;20127;-84
2023/12/13 11:49:29;;;;;;;61.33;35.47;;;8.60;99.90;;;;;;4980352;28;20073;-85
2023/12/13 11:52:00;;;;;;;64.50;35.70;;;8.60;99.90;;;;;;4997617;28;20070;-85
2023/12/13 11:54:26;;;;;;;62.47;35.70;;;8.60;99.90;;;;;;4993399;28;20411;-85
2023/12/13 11:56:52;;;;;;;62.40;36.85;;;8.60;99.90;;;;;;4976984;28;20078;-85
2023/12/13 11:59:21;;;;;;;62.92;36.90;;;8.60;99.90;;;;;;4966612;28;20551;-84
2023/12/13 12:01:47;;;;;;;60.83;34.95;;;8.60;99.90;;;;;;5015206;28;20179;-85
2023/12/13 12:04:16;;;;;;;60.22;36.83;;;8.60;99.90;;;;;;4976096;28;20093;-85
2023/12/13 12:06:49;;;;;;;63.97;37.05;;;8.60;99.90;;;;;;4980407;28;20086;-85
2023/12/13 12:09:21;;;;;;;59.15;35.65;;;8.60;99.90;;;;;;5000532;28;20133;-85
2023/12/13 12:11:53;;;;;;;68.72;37.95;;;8.60;99.90;;;;;;5010518;28;20434;-85
2023/12/13 12:14:18;;;;;;;60.22;36.47;;;8.60;99.90;;;;;;4989773;28;20073;-85
2023/12/13 12:16:44;;;;;;;62.42;38.05;;;8.60;99.90;;;;;;5009449;28;20084;-85
2023/12/13 12:19:10;;;;;;;63.63;35.75;;;8.60;99.90;;;;;;4969117;28;20050;-85
2023/12/13 12:21:36;;;;;;;62.83;35.85;;;8.70;99.90;;;;;;4964487;28;20078;-85
2023/12/13 12:24:03;;;;;;;63.22;36.13;;;8.70;99.90;;;;;;4968998;28;20092;-84
2023/12/13 12:26:29;;;;;;;60.80;35.72;;;8.70;99.90;;;;;;4981233;28;20616;-85
2023/12/13 12:28:55;;;;;;;58.30;35.10;;;8.80;99.90;;;;;;4962595;28;20125;-78
2023/12/13 12:31:21;;;;;;;73.20;36.92;;;8.70;99.90;;;;;;4995938;28;20133;-77
2023/12/13 12:33:57;;;;;;;67.82;37.10;;;8.80;99.90;;;;;;4975321;28;20133;-85
2023/12/13 12:36:24;;;;;;;60.00;33.65;;;8.70;99.90;;;;;;4966536;28;20042;-85
2023/12/13 12:38:50;;;;;;;64.80;36.92;;;8.80;99.90;;;;;;4972802;28;20059;-85
2023/12/13 12:41:17;;;;;;;60.17;34.30;;;8.80;99.90;;;;;;4978459;28;20050;-85